Terminal Aerodrome Forecast
Issued by NWS

Home | Current Version | Previous Version | Text Only | Print | Product List | Glossary On
Versions: 1 2 3 4 5 6 7 8 9 10 11 12
000
FTUS45 KTFX 251700 RRA
TAFCTB
TAF
KCTB 251747Z 2518/2618 15010KT P6SM BKN150
     FM260100 19010KT P6SM BKN120
     FM260600 23015KT P6SM BKN100
     FM261000 23025G35KT P6SM BKN080=

USA.gov is the U.S. government's official web portal to all federal, state and local government web resources and services.